Stations météo

Publicité
Kinbrace, Grande-Bretagne (99016): Température de l'air & dewpoint: 15.04.2018 12:00:00 - 21.04.2018 12:00:00 (BST)Kinbrace, Grande-Bretagne (99016): Vitesse du vent & gusts: 15.04.2018 12:00:00 - 21.04.2018 12:00:00 (BST)Kinbrace, Grande-Bretagne (99016): Direction du vent: 15.04.2018 12:00:00 - 21.04.2018 12:00:00 (BST)Kinbrace, Grande-Bretagne (99016): Quantités de précipitations: 15.04.2018 12:00:00 - 21.04.2018 12:00:00 (BST)
Date & Time tt [°C] td [°C] ff [km/h] ff [knt] fx [km/h] fx [knt] dd rr [mm]
21.04.2018 12:00:00 11,5 4,9 18 10 - - SSE -
21.04.2018 11:00:00 10,8 3,9 13 7 - - S 0,0
21.04.2018 10:00:00 10,4 4,6 11 6 - - SSE 0,0
21.04.2018 09:00:00 9,1 4,7 9 5 - - SSE 0,0
21.04.2018 08:00:00 4,6 4,0 4 2 - - SE 0,0
21.04.2018 07:00:00 1,8 1,2 5 3 - - SSE 0,0
21.04.2018 06:00:00 2,4 1,5 5 3 - - SE 0,0
21.04.2018 05:00:00 3,1 1,7 5 3 - - SSE 0,0
21.04.2018 04:00:00 4,0 3,1 4 2 - - ESE 0,0
21.04.2018 03:00:00 3,7 2,7 5 3 - - SSW 0,0
21.04.2018 02:00:00 7,0 4,9 8 4 - - S 0,0
21.04.2018 01:00:00 6,5 5,0 9 5 - - WSW 0,0
21.04.2018 00:00:00 6,9 4,4 9 5 - - W 0,0
20.04.2018 23:00:00 7,6 4,9 13 7 - - WSW 0,0
20.04.2018 22:00:00 8,6 4,4 5 3 - - S 0,0
20.04.2018 21:00:00 8,4 4,4 16 9 - - W 0,0
20.04.2018 20:00:00 8,9 4,1 18 10 - - WNW 0,0
20.04.2018 19:00:00 11,1 4,2 15 8 - - W 0,0
20.04.2018 18:00:00 11,6 6,4 21 11 - - WNW 0,2
20.04.2018 17:00:00 10,5 6,6 22 12 - - W 0,0
20.04.2018 16:00:00 10,3 7,3 26 14 46 25 W 0,2
20.04.2018 15:00:00 13,1 5,8 26 14 46 25 W 0,0
20.04.2018 14:00:00 14,0 5,3 26 14 54 29 WSW 0,0
20.04.2018 13:00:00 14,5 4,6 35 19 50 27 W 0,0
20.04.2018 12:00:00 12,2 6,6 26 14 - - W 0,0
20.04.2018 11:00:00 11,2 7,2 26 14 - - W 0,0
20.04.2018 10:00:00 12,5 4,7 18 10 - - WSW 0,0
20.04.2018 09:00:00 12,1 5,3 11 6 - - SW 0,0
20.04.2018 08:00:00 8,5 6,4 4 2 - - SE 0,0
20.04.2018 07:00:00 4,7 3,8 5 3 - - ESE 0,0
20.04.2018 06:00:00 3,8 1,2 2 1 - - NNW 0,0
20.04.2018 05:00:00 7,1 4,9 5 3 - - S 0,0
20.04.2018 04:00:00 3,8 2,6 2 1 - - ESE 0,0
20.04.2018 03:00:00 3,8 1,8 4 2 - - WNW 0,0
20.04.2018 02:00:00 4,8 3,2 5 3 - - ESE 0,0
20.04.2018 01:00:00 6,3 4,1 5 3 - - ESE 0,0
20.04.2018 00:00:00 7,1 4,3 5 3 - - SSE 0,0
19.04.2018 23:00:00 7,4 5,0 4 2 - - ESE 0,0
19.04.2018 22:00:00 8,8 5,7 4 2 - - S 0,0
19.04.2018 21:00:00 9,5 6,4 5 3 - - SSE 0,0
19.04.2018 20:00:00 13,8 8,0 11 6 - - SW 0,0
19.04.2018 19:00:00 14,5 7,0 16 9 - - SW 0,0
19.04.2018 18:00:00 15,5 7,4 18 10 - - W 0,0
19.04.2018 17:00:00 16,4 8,0 16 9 - - W 0,0
19.04.2018 16:00:00 16,6 8,2 18 10 - - W 0,0
19.04.2018 15:00:00 16,8 8,1 13 7 - - SW 0,0
19.04.2018 14:00:00 16,1 8,2 13 7 - - W 0,0
19.04.2018 13:00:00 16,6 9,7 13 7 - - S 0,0
19.04.2018 12:00:00 15,7 9,6 16 9 - - SSW 0,0
19.04.2018 11:00:00 15,1 9,8 16 9 - - S 0,0
19.04.2018 10:00:00 14,6 10,1 16 9 - - S 0,0
19.04.2018 09:00:00 14,1 9,3 18 10 - - S 0,0
19.04.2018 08:00:00 - - - - - - - -
19.04.2018 07:00:00 - - - - - - - -
19.04.2018 06:00:00 - - - - - - - -
19.04.2018 05:00:00 - - - - - - - -
19.04.2018 04:00:00 - - - - - - - -
19.04.2018 03:00:00 - - - - - - - -
19.04.2018 02:00:00 14,6 9,6 39 21 54 29 SSE 0,0
19.04.2018 01:00:00 12,7 9,0 35 19 50 27 SE 0,0
19.04.2018 00:00:00 12,7 8,2 34 18 72 39 SE 0,0
18.04.2018 23:00:00 15,0 8,7 48 26 68 37 SSE 0,0
18.04.2018 22:00:00 14,4 8,6 37 20 59 32 SSE 0,0
18.04.2018 21:00:00 14,3 8,7 34 18 46 25 SSE 0,0
18.04.2018 20:00:00 14,2 9,2 29 16 50 27 SSE 0,0
18.04.2018 19:00:00 15,1 8,8 29 16 46 25 SSE 0,0
18.04.2018 18:00:00 15,4 8,3 24 13 - - SE 0,0
18.04.2018 17:00:00 16,7 8,6 24 13 - - SSE 0,0
18.04.2018 16:00:00 16,3 8,6 22 12 - - SE 0,0
18.04.2018 15:00:00 17,0 8,6 26 14 - - S 0,0
18.04.2018 14:00:00 15,3 8,2 28 15 - - S 0,0
18.04.2018 13:00:00 14,6 8,1 28 15 - - SSE 0,0
18.04.2018 12:00:00 15,5 8,0 28 15 - - S 0,0
18.04.2018 11:00:00 14,6 7,8 28 15 - - SSE 0,0
18.04.2018 10:00:00 12,6 7,4 22 12 - - SE 0,0
18.04.2018 09:00:00 12,2 7,4 28 15 - - SSE 0,0
18.04.2018 08:00:00 10,8 7,2 16 9 - - ESE 0,0
18.04.2018 07:00:00 9,6 6,7 18 10 - - ESE 0,0
18.04.2018 06:00:00 9,8 6,9 22 12 - - ESE 0,0
18.04.2018 05:00:00 10,1 7,3 21 11 - - E 0,0
18.04.2018 04:00:00 9,0 6,5 16 9 - - ESE 0,0
18.04.2018 03:00:00 10,6 7,2 22 12 - - SSE 0,0
18.04.2018 02:00:00 10,2 6,6 21 11 - - SSE 0,0
18.04.2018 01:00:00 10,2 6,8 22 12 - - ESE 0,0
18.04.2018 00:00:00 10,2 7,0 21 11 - - E 0,0
17.04.2018 23:00:00 10,6 7,2 24 13 - - SE 0,0
17.04.2018 22:00:00 10,4 6,8 18 10 - - SSE 0,0
17.04.2018 21:00:00 11,2 6,8 24 13 - - S 0,0
17.04.2018 20:00:00 12,9 6,5 21 11 - - S 0,0
17.04.2018 19:00:00 14,4 7,8 22 12 - - S 0,0
17.04.2018 18:00:00 14,8 6,8 24 13 - - S 0,0
17.04.2018 17:00:00 15,9 5,6 29 16 48 26 S 0,0
17.04.2018 16:00:00 15,8 6,8 28 15 - - S 0,0
17.04.2018 15:00:00 15,6 6,5 34 18 54 29 S 0,0
17.04.2018 14:00:00 17,0 7,7 29 16 50 27 S 0,0
17.04.2018 13:00:00 15,8 7,1 35 19 54 29 S 0,0
17.04.2018 12:00:00 15,0 7,8 39 21 59 32 S 0,0
17.04.2018 11:00:00 13,4 7,7 37 20 55 30 SSE 0,0
17.04.2018 10:00:00 13,1 7,4 37 20 59 32 SSE 0,0
17.04.2018 09:00:00 9,7 6,4 37 20 55 30 SE 0,0
17.04.2018 08:00:00 8,5 5,9 28 15 54 29 SE 0,0
17.04.2018 07:00:00 8,8 6,1 31 17 59 32 SE 0,0
17.04.2018 06:00:00 9,0 5,2 42 23 61 33 SE 0,0
17.04.2018 05:00:00 8,5 5,1 39 21 57 31 SE 0,0
17.04.2018 04:00:00 8,8 5,3 41 22 57 31 SE 0,0
17.04.2018 03:00:00 9,4 5,0 37 20 59 32 SSE 0,0
17.04.2018 02:00:00 9,7 4,5 41 22 55 30 SSE 0,0
17.04.2018 01:00:00 9,8 4,5 29 16 52 28 SSE 0,0
17.04.2018 00:00:00 9,8 4,4 34 18 50 27 SE 0,0
16.04.2018 23:00:00 9,6 3,7 26 14 46 25 SSE 0,0
16.04.2018 22:00:00 10,3 3,4 29 16 46 25 SSE 0,0
16.04.2018 21:00:00 10,3 3,1 31 17 - - SSE 0,0
16.04.2018 20:00:00 11,2 3,5 28 15 - - S 0,0
16.04.2018 19:00:00 12,2 5,6 22 12 - - SSE 0,0
16.04.2018 18:00:00 14,0 6,4 28 15 - - SSE 0,0
16.04.2018 17:00:00 14,8 7,1 28 15 - - SSE 0,0
16.04.2018 16:00:00 14,3 7,3 24 13 - - SSE 0,0
16.04.2018 15:00:00 14,0 7,5 22 12 - - SE 0,0
16.04.2018 14:00:00 14,2 7,4 22 12 - - SSE 0,0
16.04.2018 13:00:00 13,8 7,9 18 10 - - SSE 0,0
16.04.2018 12:00:00 12,6 7,6 22 12 - - SSE 0,0
16.04.2018 11:00:00 10,0 6,8 21 11 - - SE 0,0
16.04.2018 10:00:00 8,9 6,4 29 16 - - SE 0,0
16.04.2018 09:00:00 7,9 5,9 34 18 - - SE 0,0
16.04.2018 08:00:00 6,7 5,6 29 16 - - SE 0,0
16.04.2018 07:00:00 6,3 5,8 22 12 - - SE 0,0
16.04.2018 06:00:00 6,3 5,5 26 14 - - SE 0,0
16.04.2018 05:00:00 6,3 5,2 29 16 48 26 ESE 0,0
16.04.2018 04:00:00 5,9 5,1 22 12 - - ESE 0,0
16.04.2018 03:00:00 5,7 4,7 29 16 46 25 SE 0,0
16.04.2018 02:00:00 6,0 4,6 26 14 - - SE 0,0
16.04.2018 01:00:00 5,7 4,8 31 17 50 27 ESE 0,0
16.04.2018 00:00:00 6,0 4,8 29 16 52 28 SE 0,0
15.04.2018 23:00:00 6,9 4,8 37 20 55 30 ESE 0,0
15.04.2018 22:00:00 8,0 4,8 28 15 46 25 SE 0,0
15.04.2018 21:00:00 8,5 4,9 26 14 46 25 SE 0,0
15.04.2018 20:00:00 9,7 5,2 28 15 - - ESE 0,0
15.04.2018 19:00:00 11,3 5,8 21 11 - - SE 0,0
15.04.2018 18:00:00 12,5 6,3 16 9 - - ESE 0,0
15.04.2018 17:00:00 13,9 6,7 24 13 - - SE 0,0
15.04.2018 16:00:00 14,1 6,8 31 17 - - SE 0,0
15.04.2018 15:00:00 14,0 6,7 29 16 46 25 SE 0,0
15.04.2018 14:00:00 14,3 6,7 29 16 - - SSE 0,0
15.04.2018 13:00:00 13,3 6,1 31 17 - - SSE 0,0
15.04.2018 12:00:00 13,5 5,3 28 15 - - SE 0,0

tt = Température de l'air
td = dewpoint
ff = Vitesse du vent
fx = gusts
dd = Direction du vent
rr = Quantités de précipitations

stations d'obs. à proximité